Time;durP1;ratioP1;P1;durP2;ratioP2;P2;SDS_P1;SDS_P2;PMS_P1;PMS_P2;Temp;Humidity;BMP_temperature;BMP_pressure;BME280_temperature;BME280_humidity;BME280_pressure;Samples;Min_cycle;Max_cycle;Signal;HPM_P1;HPM_P2
2021/08/17 00:00:00;;;;;;;0.40;0.30;;;12.80;99.90;;;;;;5033989;28;20822;-91
2021/08/17 00:02:27;;;;;;;0.60;0.50;;;12.70;99.90;;;;;;5033950;28;20845;-91
2021/08/17 00:04:54;;;;;;;0.40;0.40;;;12.60;99.90;;;;;;5033882;28;20446;-90
2021/08/17 00:07:22;;;;;;;0.60;0.50;;;12.60;99.90;;;;;;5033847;28;20457;-91
2021/08/17 00:09:50;;;;;;;0.50;0.40;;;12.60;99.90;;;;;;5033642;28;20441;-90
2021/08/17 00:12:16;;;;;;;0.40;0.30;;;12.60;99.90;;;;;;5033768;28;20470;-91
2021/08/17 00:14:43;;;;;;;0.40;0.30;;;12.50;99.90;;;;;;5035326;28;20458;-91
2021/08/17 00:17:11;;;;;;;2.20;0.57;;;12.60;99.90;;;;;;5037494;28;20541;-91
2021/08/17 00:19:40;;;;;;;1.63;0.50;;;12.60;99.90;;;;;;5037599;28;20454;-89
2021/08/17 00:22:07;;;;;;;0.80;0.30;;;12.50;99.90;;;;;;5037409;28;20474;-91
2021/08/17 00:24:35;;;;;;;1.33;0.50;;;12.50;99.90;;;;;;5037376;28;20453;-90
2021/08/17 00:27:03;;;;;;;0.40;0.40;;;12.50;99.90;;;;;;5037267;28;20930;-90
2021/08/17 00:29:30;;;;;;;0.40;0.30;;;12.50;99.90;;;;;;5037355;28;20443;-91
2021/08/17 00:31:57;;;;;;;7.83;0.63;;;12.40;99.90;;;;;;5037232;28;20473;-90
2021/08/17 00:34:24;;;;;;;0.83;0.70;;;12.40;99.90;;;;;;5037225;28;20455;-90
2021/08/17 00:36:52;;;;;;;0.30;0.30;;;12.30;99.90;;;;;;5037126;28;20450;-89
2021/08/17 00:39:19;;;;;;;0.37;0.37;;;12.30;99.90;;;;;;5036794;28;20505;-90
2021/08/17 00:41:47;;;;;;;0.50;0.40;;;12.20;99.90;;;;;;5036638;28;20466;-90
2021/08/17 00:44:24;;;;;;;1.07;0.30;;;12.10;99.90;;;;;;5036714;28;20461;-90
2021/08/17 00:46:51;;;;;;;0.50;0.30;;;12.10;99.90;;;;;;5036736;28;20945;-89
2021/08/17 00:49:19;;;;;;;0.40;0.30;;;12.00;99.90;;;;;;5036811;28;20431;-90
2021/08/17 00:51:46;;;;;;;1.80;0.77;;;12.00;99.90;;;;;;5036694;28;20450;-89
2021/08/17 00:54:13;;;;;;;0.33;0.30;;;12.00;99.90;;;;;;5036848;28;20457;-89
2021/08/17 00:56:40;;;;;;;1.07;0.60;;;11.90;99.90;;;;;;5036498;28;20503;-90
2021/08/17 00:59:10;;;;;;;0.87;0.30;;;11.90;99.90;;;;;;5036760;28;20910;-89
2021/08/17 01:01:37;;;;;;;0.40;0.30;;;11.90;99.90;;;;;;5036565;28;20470;-89
2021/08/17 01:04:04;;;;;;;0.40;0.30;;;11.90;99.90;;;;;;5036523;28;20443;-89
2021/08/17 01:06:31;;;;;;;5.10;0.80;;;11.90;99.90;;;;;;5036441;28;20454;-89
2021/08/17 01:08:57;;;;;;;0.30;0.20;;;11.80;99.90;;;;;;5035963;28;20439;-89
2021/08/17 01:11:25;;;;;;;0.40;0.30;;;11.80;99.90;;;;;;5036145;28;20457;-88
2021/08/17 01:13:51;;;;;;;0.33;0.30;;;11.90;99.90;;;;;;5036031;28;20461;-89
2021/08/17 01:16:20;;;;;;;0.30;0.30;;;11.80;99.90;;;;;;5036184;28;20442;-88
2021/08/17 01:18:47;;;;;;;0.40;0.40;;;11.70;99.90;;;;;;5036129;28;20487;-88
2021/08/17 01:21:15;;;;;;;0.40;0.30;;;11.70;99.90;;;;;;5035895;28;20473;-88
2021/08/17 01:23:42;;;;;;;0.80;0.33;;;11.60;99.90;;;;;;5036025;28;20447;-88
2021/08/17 01:26:10;;;;;;;0.40;0.40;;;11.60;99.90;;;;;;5036690;28;20446;-88
2021/08/17 01:28:37;;;;;;;0.30;0.30;;;11.50;99.90;;;;;;5036008;28;20454;-88
2021/08/17 01:31:05;;;;;;;0.30;0.30;;;11.50;99.90;;;;;;5035777;28;20457;-88
2021/08/17 01:33:33;;;;;;;0.30;0.30;;;11.50;99.90;;;;;;5035600;28;20985;-88
2021/08/17 01:36:00;;;;;;;0.33;0.30;;;11.50;99.90;;;;;;5035678;28;20458;-88
2021/08/17 01:38:28;;;;;;;0.43;0.43;;;11.50;99.90;;;;;;5035595;28;20494;-87
2021/08/17 01:40:55;;;;;;;0.43;0.40;;;11.50;99.90;;;;;;5035317;28;20942;-88
2021/08/17 01:43:23;;;;;;;1.37;0.87;;;11.50;99.90;;;;;;5035372;28;20482;-87
2021/08/17 01:45:57;;;;;;;1.57;0.37;;;11.50;99.90;;;;;;5035386;28;20454;-88
2021/08/17 01:48:26;;;;;;;0.73;0.73;;;11.50;99.90;;;;;;5035913;28;20437;-87
2021/08/17 01:50:53;;;;;;;0.50;0.40;;;11.50;99.90;;;;;;5035210;28;20454;-88
2021/08/17 01:53:20;;;;;;;0.63;0.40;;;11.50;99.90;;;;;;5035094;28;20474;-87
2021/08/17 01:55:47;;;;;;;0.40;0.40;;;11.50;99.90;;;;;;5035109;28;20958;-87
2021/08/17 01:58:13;;;;;;;0.93;0.43;;;11.50;99.90;;;;;;5035075;28;20479;-87
2021/08/17 02:00:44;;;;;;;0.30;0.30;;;11.50;99.90;;;;;;5035154;28;20457;-87
2021/08/17 02:03:11;;;;;;;0.30;0.30;;;11.50;99.90;;;;;;5035122;28;20490;-88
2021/08/17 02:05:38;;;;;;;0.40;0.30;;;11.40;99.90;;;;;;5035161;28;20447;-86
2021/08/17 02:08:05;;;;;;;0.77;0.30;;;11.40;99.90;;;;;;5035018;28;20443;-88
2021/08/17 02:10:32;;;;;;;0.40;0.40;;;11.40;99.90;;;;;;5034981;28;20457;-87
2021/08/17 02:12:59;;;;;;;0.83;0.60;;;11.40;99.90;;;;;;5034788;28;20475;-88
2021/08/17 02:15:26;;;;;;;0.30;0.30;;;11.40;99.90;;;;;;5034930;28;20948;-88
2021/08/17 02:17:54;;;;;;;0.70;0.40;;;11.40;99.90;;;;;;5034539;28;20435;-87
2021/08/17 02:20:20;;;;;;;0.50;0.40;;;11.40;99.90;;;;;;5034669;28;20446;-87
2021/08/17 02:22:47;;;;;;;1.17;0.83;;;11.40;99.90;;;;;;5034349;28;20459;-88
2021/08/17 02:25:14;;;;;;;0.50;0.40;;;11.40;99.90;;;;;;5034696;28;20457;-87
2021/08/17 02:27:41;;;;;;;3.30;0.67;;;11.30;99.90;;;;;;5034902;28;20446;-87
2021/08/17 02:30:08;;;;;;;0.40;0.40;;;11.30;99.90;;;;;;5034658;28;20459;-87
2021/08/17 02:32:35;;;;;;;0.57;0.40;;;11.30;99.90;;;;;;5034573;28;20466;-87
2021/08/17 02:35:04;;;;;;;0.50;0.50;;;11.30;99.90;;;;;;5034558;28;20446;-87
2021/08/17 02:37:31;;;;;;;1.17;0.40;;;11.30;99.90;;;;;;5033775;28;20447;-88
2021/08/17 02:39:59;;;;;;;0.83;0.40;;;11.20;99.90;;;;;;5033948;28;20501;-87
2021/08/17 02:42:26;;;;;;;0.30;0.30;;;11.20;99.90;;;;;;5034124;28;20513;-86
2021/08/17 02:44:52;;;;;;;0.87;0.50;;;11.20;99.90;;;;;;5034065;28;20458;-86
2021/08/17 02:47:19;;;;;;;0.30;0.27;;;11.20;99.90;;;;;;5033876;28;20458;-86
2021/08/17 02:49:46;;;;;;;2.00;0.70;;;11.10;99.90;;;;;;5033831;28;20465;-86
2021/08/17 02:52:14;;;;;;;0.40;0.30;;;11.10;99.90;;;;;;5033465;28;20462;-86
2021/08/17 02:54:41;;;;;;;1.50;0.70;;;11.10;99.90;;;;;;5034182;28;20453;-86
2021/08/17 02:57:08;;;;;;;0.40;0.40;;;11.20;99.90;;;;;;5033969;28;20454;-86
2021/08/17 02:59:35;;;;;;;0.30;0.30;;;11.20;99.90;;;;;;5033814;28;20532;-86
2021/08/17 03:02:02;;;;;;;0.60;0.40;;;11.20;99.90;;;;;;5033956;28;20509;-86
2021/08/17 03:04:29;;;;;;;1.60;0.83;;;11.20;99.90;;;;;;5034181;28;20435;-87
2021/08/17 03:06:56;;;;;;;0.40;0.30;;;11.20;99.90;;;;;;5033697;28;20454;-86
2021/08/17 03:09:25;;;;;;;0.50;0.40;;;11.20;99.90;;;;;;5033692;28;20447;-86
2021/08/17 03:11:52;;;;;;;1.17;0.30;;;11.20;99.90;;;;;;5033558;28;20466;-87
2021/08/17 03:14:18;;;;;;;0.87;0.60;;;11.20;99.90;;;;;;5033832;28;20533;-87
2021/08/17 03:16:45;;;;;;;0.70;0.40;;;11.20;99.90;;;;;;5033611;28;20446;-86
2021/08/17 03:19:12;;;;;;;1.50;0.60;;;11.20;99.90;;;;;;5033567;28;20486;-86
2021/08/17 03:21:39;;;;;;;1.50;0.60;;;11.10;99.90;;;;;;5033445;28;20467;-87
2021/08/17 03:24:06;;;;;;;0.40;0.40;;;11.10;99.90;;;;;;5033418;28;20957;-87
2021/08/17 03:26:34;;;;;;;0.67;0.40;;;11.10;99.90;;;;;;5033384;28;20439;-86
2021/08/17 03:29:01;;;;;;;0.60;0.37;;;11.10;99.90;;;;;;5033217;28;20439;-86
2021/08/17 03:31:28;;;;;;;0.30;0.30;;;11.10;99.90;;;;;;5033396;28;20454;-86
2021/08/17 03:33:55;;;;;;;0.60;0.37;;;11.10;99.90;;;;;;5033376;28;20454;-86
2021/08/17 03:36:21;;;;;;;1.20;0.60;;;11.10;99.90;;;;;;5033077;28;20451;-85
2021/08/17 03:38:48;;;;;;;1.80;0.60;;;11.10;99.90;;;;;;5033011;28;20486;-86
2021/08/17 03:41:15;;;;;;;0.93;0.70;;;11.10;99.90;;;;;;5033275;28;20778;-86
2021/08/17 03:43:44;;;;;;;0.40;0.30;;;11.00;99.90;;;;;;5033404;28;20447;-84
2021/08/17 03:46:10;;;;;;;0.93;0.57;;;11.00;99.90;;;;;;5033462;28;20500;-86
2021/08/17 03:48:37;;;;;;;1.17;0.40;;;11.00;99.90;;;;;;5033199;28;20438;-85
2021/08/17 03:51:04;;;;;;;2.73;0.67;;;11.00;99.90;;;;;;5036929;28;20442;-86
2021/08/17 03:53:31;;;;;;;0.43;0.40;;;10.90;99.90;;;;;;5036862;28;20455;-86
2021/08/17 03:55:57;;;;;;;0.80;0.37;;;10.90;99.90;;;;;;5036863;28;20450;-85
2021/08/17 03:58:24;;;;;;;0.93;0.40;;;10.90;99.90;;;;;;5037090;28;20446;-86
2021/08/17 04:00:52;;;;;;;0.70;0.70;;;10.80;99.90;;;;;;5037077;28;20459;-86
2021/08/17 04:03:20;;;;;;;0.30;0.27;;;10.80;99.90;;;;;;5036709;28;20465;-86
2021/08/17 04:05:46;;;;;;;0.40;0.40;;;10.80;99.90;;;;;;5037169;28;20461;-86
2021/08/17 04:08:13;;;;;;;0.30;0.30;;;10.80;99.90;;;;;;5036794;28;20942;-85
2021/08/17 04:10:40;;;;;;;0.30;0.30;;;10.70;99.90;;;;;;5036698;28;20450;-86
2021/08/17 04:13:07;;;;;;;0.30;0.30;;;10.70;99.90;;;;;;5036827;28;20541;-86
2021/08/17 04:15:33;;;;;;;0.60;0.40;;;10.60;99.90;;;;;;5036572;28;20434;-86
2021/08/17 04:18:02;;;;;;;0.40;0.40;;;10.70;99.90;;;;;;5036832;28;20451;-86
2021/08/17 04:20:30;;;;;;;1.47;0.50;;;10.60;99.90;;;;;;5036870;28;20497;-86
2021/08/17 04:22:57;;;;;;;0.30;0.30;;;10.70;99.90;;;;;;5037248;28;20553;-86
2021/08/17 04:25:23;;;;;;;3.07;0.30;;;10.70;99.90;;;;;;5036712;28;20446;-87
2021/08/17 04:27:50;;;;;;;0.67;0.60;;;10.70;99.90;;;;;;5036521;28;20942;-86
2021/08/17 04:30:17;;;;;;;0.30;0.30;;;10.50;99.90;;;;;;5036630;28;20446;-86
2021/08/17 04:32:44;;;;;;;0.30;0.30;;;10.40;99.90;;;;;;5036241;28;20454;-86
2021/08/17 04:35:13;;;;;;;0.47;0.30;;;10.40;99.90;;;;;;5036592;28;20449;-86
2021/08/17 04:37:40;;;;;;;0.40;0.30;;;10.40;99.90;;;;;;5036452;28;20458;-86
2021/08/17 04:40:08;;;;;;;0.40;0.30;;;10.40;99.90;;;;;;5036088;28;20501;-86
2021/08/17 04:42:35;;;;;;;0.50;0.30;;;10.40;99.90;;;;;;5036300;28;20459;-86
2021/08/17 04:45:02;;;;;;;0.50;0.50;;;10.50;99.90;;;;;;5036327;28;20860;-86
2021/08/17 04:47:28;;;;;;;0.30;0.30;;;10.50;99.90;;;;;;5036014;28;20435;-86
2021/08/17 04:49:55;;;;;;;1.13;0.60;;;10.50;99.90;;;;;;5036291;28;20449;-87
2021/08/17 04:52:23;;;;;;;0.57;0.30;;;10.40;99.90;;;;;;5036158;28;20462;-86
2021/08/17 04:54:50;;;;;;;3.43;0.50;;;10.40;99.90;;;;;;5035913;28;20541;-86
2021/08/17 04:57:17;;;;;;;1.57;0.30;;;10.40;99.90;;;;;;5035878;28;20458;-86
2021/08/17 04:59:43;;;;;;;0.60;0.40;;;10.40;99.90;;;;;;5035504;28;20843;-84
2021/08/17 05:02:10;;;;;;;0.30;0.30;;;10.40;99.90;;;;;;5035509;28;21005;-85
2021/08/17 05:04:37;;;;;;;0.30;0.30;;;10.50;99.90;;;;;;5035957;28;20454;-86
2021/08/17 05:07:04;;;;;;;0.63;0.37;;;10.50;99.90;;;;;;5035862;28;20454;-85
2021/08/17 05:09:32;;;;;;;0.73;0.43;;;10.40;99.90;;;;;;5035543;28;20953;-85
2021/08/17 05:11:59;;;;;;;0.60;0.53;;;10.40;99.90;;;;;;5035730;28;20484;-85
2021/08/17 05:14:26;;;;;;;0.43;0.43;;;10.40;99.90;;;;;;5035764;28;20446;-85
2021/08/17 05:16:53;;;;;;;0.40;0.30;;;10.40;99.90;;;;;;5035370;28;20442;-85
2021/08/17 05:19:20;;;;;;;0.37;0.30;;;10.40;99.90;;;;;;5035974;28;20471;-83
2021/08/17 05:21:46;;;;;;;0.40;0.30;;;10.30;99.90;;;;;;5035229;28;20463;-85
2021/08/17 05:24:13;;;;;;;0.40;0.40;;;10.30;99.90;;;;;;5035261;28;20446;-85
2021/08/17 05:26:41;;;;;;;2.50;0.93;;;10.40;99.90;;;;;;5035470;28;20450;-86
2021/08/17 05:29:08;;;;;;;0.87;0.50;;;10.40;99.90;;;;;;5035459;28;20451;-85
2021/08/17 05:31:35;;;;;;;4.03;0.63;;;10.50;99.90;;;;;;5035387;28;20833;-85
2021/08/17 05:34:01;;;;;;;1.23;0.57;;;10.60;99.90;;;;;;5035346;28;20454;-85
2021/08/17 05:36:28;;;;;;;0.37;0.27;;;10.60;99.90;;;;;;5035335;28;20474;-85
2021/08/17 05:38:55;;;;;;;0.50;0.37;;;10.70;99.90;;;;;;5034982;28;20489;-85
2021/08/17 05:41:21;;;;;;;0.50;0.40;;;10.70;99.90;;;;;;5035171;28;20442;-85
2021/08/17 05:43:50;;;;;;;0.63;0.47;;;10.80;99.90;;;;;;5034886;28;20451;-86
2021/08/17 05:46:16;;;;;;;0.70;0.70;;;10.90;99.90;;;;;;5035156;28;20450;-85
2021/08/17 05:48:43;;;;;;;0.37;0.37;;;10.90;99.90;;;;;;5035051;28;20455;-85
2021/08/17 05:51:10;;;;;;;0.60;0.30;;;11.00;99.90;;;;;;5034999;28;20814;-85
2021/08/17 05:53:37;;;;;;;0.93;0.70;;;11.10;99.90;;;;;;5035000;28;20482;-86
2021/08/17 05:56:05;;;;;;;0.40;0.30;;;11.20;99.90;;;;;;5035002;28;20457;-86
2021/08/17 05:58:31;;;;;;;0.70;0.70;;;11.30;99.90;;;;;;5035203;28;20447;-86
2021/08/17 06:01:00;;;;;;;0.40;0.30;;;11.40;99.90;;;;;;5034756;28;20487;-86
2021/08/17 06:03:27;;;;;;;0.40;0.40;;;11.40;99.90;;;;;;5034646;28;20817;-86
2021/08/17 06:05:57;;;;;;;0.50;0.40;;;11.40;99.90;;;;;;5034841;28;20439;-85
2021/08/17 06:08:24;;;;;;;0.67;0.63;;;11.40;99.90;;;;;;5034466;28;20451;-87
2021/08/17 06:10:51;;;;;;;2.93;0.40;;;11.60;99.90;;;;;;5034768;28;20447;-87
2021/08/17 06:13:18;;;;;;;5.13;1.07;;;11.70;99.90;;;;;;5033601;28;20817;-86
2021/08/17 06:15:45;;;;;;;2.50;1.67;;;11.80;99.90;;;;;;5034859;28;20435;-86
2021/08/17 06:18:13;;;;;;;2.97;0.40;;;11.90;99.90;;;;;;5034695;28;20446;-86
2021/08/17 06:20:40;;;;;;;0.30;0.30;;;12.10;99.90;;;;;;5034804;28;20812;-86
2021/08/17 06:23:06;;;;;;;0.30;0.30;;;12.20;99.90;;;;;;5034598;28;20477;-86
2021/08/17 06:25:34;;;;;;;0.70;0.60;;;12.30;99.90;;;;;;5035108;28;20898;-86
2021/08/17 06:28:01;;;;;;;0.63;0.63;;;12.40;99.90;;;;;;5034497;28;20462;-87
2021/08/17 06:30:28;;;;;;;2.53;0.93;;;12.60;99.90;;;;;;5034369;28;20423;-85
2021/08/17 06:32:55;;;;;;;0.30;0.27;;;12.70;99.90;;;;;;5034268;28;20493;-86
2021/08/17 06:35:24;;;;;;;0.70;0.50;;;12.80;99.90;;;;;;5034263;28;20439;-85
2021/08/17 06:37:51;;;;;;;0.33;0.33;;;12.90;99.90;;;;;;5033908;28;20431;-85
2021/08/17 06:40:18;;;;;;;0.60;0.53;;;13.00;99.90;;;;;;5033827;28;20494;-85
2021/08/17 06:42:45;;;;;;;0.57;0.57;;;13.10;99.90;;;;;;5033807;28;20443;-86
2021/08/17 06:45:13;;;;;;;1.27;0.73;;;13.20;99.90;;;;;;5034047;28;20435;-85
2021/08/17 06:47:45;;;;;;;2.93;0.50;;;13.30;99.90;;;;;;5033765;28;20434;-85
2021/08/17 06:50:12;;;;;;;1.53;0.73;;;13.40;99.90;;;;;;5033966;28;20439;-85
2021/08/17 06:52:40;;;;;;;2.00;0.67;;;13.40;99.90;;;;;;5033583;28;20455;-85
2021/08/17 06:55:08;;;;;;;0.73;0.50;;;13.50;99.90;;;;;;5033868;28;20450;-86
2021/08/17 06:57:35;;;;;;;1.27;0.50;;;13.70;99.90;;;;;;5033629;28;20435;-85
2021/08/17 07:00:02;;;;;;;0.30;0.30;;;13.70;99.90;;;;;;5033392;28;21009;-85
2021/08/17 07:02:29;;;;;;;0.50;0.40;;;13.80;99.90;;;;;;5033769;28;20467;-85
2021/08/17 07:04:56;;;;;;;2.10;0.50;;;14.00;99.90;;;;;;5033536;28;20779;-85
2021/08/17 07:07:22;;;;;;;0.83;0.80;;;14.00;99.90;;;;;;5033668;28;20442;-85
2021/08/17 07:09:51;;;;;;;2.10;0.60;;;14.20;99.90;;;;;;5033695;28;20447;-85
2021/08/17 07:12:17;;;;;;;1.17;0.80;;;14.40;99.90;;;;;;5033609;28;20475;-84
2021/08/17 07:14:44;;;;;;;1.07;0.60;;;14.50;99.90;;;;;;5033325;28;20430;-85
2021/08/17 07:17:11;;;;;;;1.77;1.30;;;14.70;99.90;;;;;;5033374;28;20439;-84
2021/08/17 07:19:38;;;;;;;0.53;0.50;;;14.80;99.90;;;;;;5033529;28;20480;-85
2021/08/17 07:22:04;;;;;;;1.10;0.50;;;14.80;99.90;;;;;;5033370;28;20466;-85
2021/08/17 07:24:31;;;;;;;0.70;0.50;;;15.00;99.90;;;;;;5033337;28;20447;-84
2021/08/17 07:26:59;;;;;;;0.67;0.60;;;15.20;99.90;;;;;;5033283;28;20526;-85
2021/08/17 07:29:26;;;;;;;2.20;1.07;;;15.30;99.90;;;;;;5033449;28;20436;-84
2021/08/17 07:31:53;;;;;;;4.17;0.80;;;15.30;99.90;;;;;;5033342;28;20477;-85
2021/08/17 07:34:20;;;;;;;1.43;0.77;;;15.30;99.90;;;;;;5033417;28;20818;-84
2021/08/17 07:36:47;;;;;;;0.70;0.70;;;15.50;99.90;;;;;;5033358;28;20446;-84
2021/08/17 07:39:14;;;;;;;2.60;0.63;;;15.50;99.90;;;;;;5033341;28;20490;-85
2021/08/17 07:41:42;;;;;;;0.40;0.40;;;15.50;99.90;;;;;;5032971;28;20478;-84
2021/08/17 07:44:12;;;;;;;0.90;0.47;;;15.70;99.90;;;;;;5033154;28;20435;-84
2021/08/17 07:46:39;;;;;;;1.07;0.47;;;15.70;99.90;;;;;;5032991;28;20449;-85
2021/08/17 07:49:06;;;;;;;3.57;0.60;;;15.80;99.90;;;;;;5033301;28;20435;-85
2021/08/17 07:51:33;;;;;;;1.30;0.80;;;15.70;99.90;;;;;;5033074;28;20458;-85
2021/08/17 07:53:59;;;;;;;0.97;0.67;;;15.70;99.90;;;;;;5032971;28;20458;-84
2021/08/17 07:56:26;;;;;;;2.00;0.67;;;16.00;99.90;;;;;;5033084;28;20461;-85
2021/08/17 07:58:53;;;;;;;0.70;0.53;;;16.00;99.90;;;;;;5032982;28;20434;-85
2021/08/17 08:01:21;;;;;;;1.23;0.70;;;16.00;99.90;;;;;;5033039;28;20486;-85
2021/08/17 08:03:48;;;;;;;2.50;0.83;;;15.90;99.90;;;;;;5033244;28;20418;-84
2021/08/17 08:06:16;;;;;;;0.63;0.40;;;15.90;99.90;;;;;;5033191;28;20455;-85
2021/08/17 08:08:43;;;;;;;0.40;0.40;;;16.00;99.90;;;;;;5033495;28;20444;-85
2021/08/17 08:11:10;;;;;;;0.50;0.50;;;16.00;99.90;;;;;;5033169;28;20449;-85
2021/08/17 08:13:36;;;;;;;1.37;1.07;;;16.20;99.90;;;;;;5032922;28;20486;-84
2021/08/17 08:16:04;;;;;;;1.33;0.80;;;16.40;99.90;;;;;;5032896;28;20442;-85
2021/08/17 08:18:32;;;;;;;1.27;0.50;;;16.60;99.90;;;;;;5032625;28;20455;-84
2021/08/17 08:20:58;;;;;;;1.50;0.93;;;16.80;99.90;;;;;;5032754;28;20486;-84
2021/08/17 08:23:25;;;;;;;1.23;1.13;;;17.00;99.90;;;;;;5032869;28;20467;-83
2021/08/17 08:25:52;;;;;;;4.00;0.63;;;17.10;99.90;;;;;;5032773;28;20458;-83
2021/08/17 08:28:19;;;;;;;1.23;0.70;;;16.70;99.90;;;;;;5032899;28;20455;-83
2021/08/17 08:30:46;;;;;;;1.27;0.90;;;16.70;99.90;;;;;;5032810;28;20451;-83
2021/08/17 08:33:13;;;;;;;2.50;0.73;;;16.60;99.90;;;;;;5032670;28;20467;-83
2021/08/17 08:35:41;;;;;;;2.30;0.80;;;16.60;99.90;;;;;;5034137;28;20976;-83
2021/08/17 08:38:08;;;;;;;1.10;0.60;;;16.90;99.90;;;;;;5036509;28;20430;-83
2021/08/17 08:40:35;;;;;;;1.03;0.63;;;17.00;99.90;;;;;;5035758;28;20834;-83
2021/08/17 08:43:03;;;;;;;1.00;0.60;;;17.00;99.90;;;;;;5036294;28;20553;-83
2021/08/17 08:45:30;;;;;;;1.83;0.63;;;17.20;99.90;;;;;;5036017;28;20442;-83
2021/08/17 08:47:57;;;;;;;1.33;0.93;;;17.20;99.90;;;;;;5036226;28;20438;-83
2021/08/17 08:50:23;;;;;;;1.07;0.97;;;17.30;99.90;;;;;;5036862;28;20439;-82
2021/08/17 08:52:51;;;;;;;0.80;0.50;;;17.30;99.90;;;;;;5036559;28;20831;-83
2021/08/17 08:55:18;;;;;;;1.43;0.77;;;17.20;99.90;;;;;;5036136;28;20435;-84
2021/08/17 08:57:45;;;;;;;2.20;0.97;;;17.10;99.90;;;;;;5036089;28;20438;-83
2021/08/17 09:00:14;;;;;;;1.20;0.80;;;17.00;99.90;;;;;;5035943;28;20544;-83
2021/08/17 09:02:41;;;;;;;1.70;0.70;;;17.00;99.90;;;;;;5035684;28;20510;-83
2021/08/17 09:05:09;;;;;;;0.70;0.60;;;16.90;99.90;;;;;;5035991;28;20806;-83
2021/08/17 09:07:37;;;;;;;3.07;1.27;;;16.80;99.90;;;;;;5035547;28;20438;-83
2021/08/17 09:10:08;;;;;;;2.00;0.97;;;16.80;99.90;;;;;;5035942;28;20435;-84
2021/08/17 09:12:37;;;;;;;2.90;0.60;;;16.90;99.90;;;;;;5035800;28;20477;-83
2021/08/17 09:15:12;;;;;;;1.50;0.63;;;16.90;99.90;;;;;;5035546;28;20416;-83
2021/08/17 09:17:41;;;;;;;0.57;0.50;;;16.90;99.90;;;;;;5035525;28;20422;-83
2021/08/17 09:20:10;;;;;;;2.40;0.93;;;16.90;99.90;;;;;;5035573;28;20450;-83
2021/08/17 09:22:37;;;;;;;1.93;0.90;;;16.80;99.90;;;;;;5035484;28;20453;-82
2021/08/17 09:25:06;;;;;;;2.03;0.67;;;16.70;99.90;;;;;;5035504;28;20795;-82
2021/08/17 09:27:35;;;;;;;0.97;0.80;;;16.70;99.90;;;;;;5035486;28;20431;-82
2021/08/17 09:30:10;;;;;;;0.70;0.70;;;16.60;99.90;;;;;;5035186;28;20786;-82
2021/08/17 09:32:50;;;;;;;0.60;0.60;;;16.60;99.90;;;;;;5035281;28;20478;-82
2021/08/17 09:35:19;;;;;;;1.83;0.70;;;16.50;99.90;;;;;;5035215;28;20845;-82
2021/08/17 09:37:46;;;;;;;0.80;0.50;;;16.50;99.90;;;;;;5035335;28;20434;-82
2021/08/17 09:40:15;;;;;;;1.90;0.77;;;16.70;99.90;;;;;;5034803;28;20540;-82
2021/08/17 09:42:42;;;;;;;0.93;0.60;;;16.90;99.90;;;;;;5035211;28;20474;-82
2021/08/17 09:45:15;;;;;;;1.07;1.00;;;17.10;99.90;;;;;;5035729;28;20439;-81
2021/08/17 09:47:44;;;;;;;0.47;0.40;;;17.40;99.90;;;;;;5033892;28;20439;-80
2021/08/17 09:50:19;;;;;;;2.43;0.77;;;17.80;99.90;;;;;;5035114;28;20414;-81
2021/08/17 09:52:47;;;;;;;1.40;0.80;;;17.80;99.90;;;;;;5034943;28;20470;-82
2021/08/17 09:55:16;;;;;;;2.30;0.90;;;17.70;99.90;;;;;;5035037;28;20431;-81
2021/08/17 09:57:43;;;;;;;0.70;0.43;;;17.80;99.90;;;;;;5034721;28;20897;-81
2021/08/17 10:00:14;;;;;;;1.27;0.83;;;17.90;99.90;;;;;;5034618;28;20953;-81
2021/08/17 10:02:44;;;;;;;1.43;0.70;;;17.90;99.90;;;;;;5034393;28;20911;-81
2021/08/17 10:05:13;;;;;;;1.83;0.63;;;18.00;99.90;;;;;;5034805;28;20449;-81
2021/08/17 10:07:40;;;;;;;0.60;0.50;;;17.90;99.90;;;;;;5034986;28;20431;-81
2021/08/17 10:10:11;;;;;;;0.70;0.50;;;17.70;99.90;;;;;;5035110;28;20854;-81
2021/08/17 10:12:39;;;;;;;2.03;0.47;;;17.50;99.90;;;;;;5034937;28;20543;-81
2021/08/17 10:15:08;;;;;;;2.23;2.00;;;17.30;99.90;;;;;;5034548;28;20438;-81
2021/08/17 10:17:35;;;;;;;1.10;0.73;;;17.10;99.90;;;;;;5034572;28;20443;-81
2021/08/17 10:20:03;;;;;;;1.10;0.70;;;17.00;99.90;;;;;;5034212;28;20911;-80
2021/08/17 10:22:30;;;;;;;0.67;0.53;;;16.90;99.90;;;;;;5034007;28;20861;-81
2021/08/17 10:25:05;;;;;;;0.80;0.40;;;16.80;99.90;;;;;;5034385;28;20462;-81
2021/08/17 10:27:34;;;;;;;2.40;0.80;;;16.80;99.90;;;;;;5034951;28;20448;-80
2021/08/17 10:30:15;;;;;;;0.93;0.60;;;16.90;99.90;;;;;;5034040;28;20919;-80
2021/08/17 10:32:48;;;;;;;1.17;0.70;;;17.20;99.90;;;;;;5034362;28;20462;-80
2021/08/17 10:35:55;;;;;;;1.23;1.13;;;17.50;99.90;;;;;;5034504;28;20427;-80
2021/08/17 10:38:42;;;;;;;2.07;0.60;;;17.60;99.90;;;;;;5034170;28;20457;-81
2021/08/17 10:41:09;;;;;;;1.63;0.97;;;17.60;99.90;;;;;;5034078;28;20463;-80
2021/08/17 10:44:08;;;;;;;2.27;1.57;;;17.60;99.90;;;;;;5034230;28;20482;-80
2021/08/17 10:46:53;;;;;;;0.70;0.50;;;17.90;99.90;;;;;;4953626;29;20447;-81
2021/08/17 10:49:35;;;;;;;0.70;0.70;;;18.00;99.90;;;;;;5026012;28;20447;-82
2021/08/17 10:52:04;;;;;;;0.50;0.50;;;18.00;99.90;;;;;;5033836;28;20463;-80
2021/08/17 10:54:32;;;;;;;3.13;1.00;;;18.10;99.90;;;;;;5033598;28;20535;-80
2021/08/17 10:57:15;;;;;;;0.50;0.50;;;18.30;99.90;;;;;;5033889;28;20462;-80
2021/08/17 10:59:44;;;;;;;1.90;0.70;;;18.50;99.90;;;;;;5033505;28;20419;-80
2021/08/17 11:02:13;;;;;;;1.50;0.53;;;18.80;99.90;;;;;;5033636;28;20490;-80
2021/08/17 11:04:42;;;;;;;0.40;0.40;;;19.00;99.90;;;;;;5033493;28;20407;-80
2021/08/17 11:07:31;;;;;;;2.00;0.77;;;19.00;99.90;;;;;;5033524;28;20891;-80
2021/08/17 11:10:00;;;;;;;0.60;0.47;;;19.10;99.90;;;;;;5033406;28;20473;-82
2021/08/17 11:12:32;;;;;;;0.83;0.83;;;19.30;99.90;;;;;;5033492;28;20463;-81
2021/08/17 11:14:59;;;;;;;2.00;0.77;;;19.50;99.90;;;;;;5033525;28;20810;-81
2021/08/17 11:17:28;;;;;;;1.17;0.83;;;19.50;99.90;;;;;;5033522;28;20457;-80
2021/08/17 11:19:56;;;;;;;1.90;0.87;;;19.50;99.90;;;;;;5033734;28;20446;-81
2021/08/17 11:22:26;;;;;;;1.53;1.20;;;19.60;99.90;;;;;;5033282;28;20552;-80
2021/08/17 11:24:55;;;;;;;1.20;0.67;;;19.50;99.90;;;;;;5034043;28;20450;-80
2021/08/17 11:27:24;;;;;;;1.10;0.60;;;19.20;99.90;;;;;;5033414;28;20451;-80
2021/08/17 11:29:52;;;;;;;1.10;0.80;;;19.20;99.90;;;;;;5033359;28;20454;-79
2021/08/17 11:32:32;;;;;;;0.40;0.40;;;19.30;99.90;;;;;;5033269;28;20477;-80
2021/08/17 11:35:03;;;;;;;1.00;0.90;;;19.30;99.90;;;;;;5033037;28;20791;-80
2021/08/17 11:37:31;;;;;;;0.80;0.37;;;19.30;99.90;;;;;;5033082;28;20937;-80
2021/08/17 11:40:00;;;;;;;1.00;0.50;;;19.50;99.90;;;;;;5033062;28;20481;-80
2021/08/17 11:42:29;;;;;;;2.20;0.90;;;19.40;99.90;;;;;;5033099;28;20490;-80
2021/08/17 11:45:00;;;;;;;1.83;0.77;;;19.50;99.90;;;;;;5033243;28;20439;-80
2021/08/17 11:47:30;;;;;;;1.00;0.70;;;19.50;99.90;;;;;;5033241;28;20435;-80
2021/08/17 11:49:58;;;;;;;0.80;0.70;;;19.40;99.90;;;;;;5032881;28;20962;-80
2021/08/17 11:52:27;;;;;;;3.77;1.47;;;19.40;99.90;;;;;;5033050;28;20466;-81
2021/08/17 11:54:57;;;;;;;1.60;1.00;;;19.40;99.90;;;;;;5033540;28;20478;-80
2021/08/17 11:57:35;;;;;;;1.23;0.70;;;19.40;99.90;;;;;;5032826;28;20447;-80
2021/08/17 12:00:11;;;;;;;1.47;0.67;;;19.50;99.90;;;;;;5033152;28;20430;-80
2021/08/17 12:02:41;;;;;;;1.73;0.80;;;19.40;99.90;;;;;;5032727;28;20493;-80
2021/08/17 12:05:09;;;;;;;1.60;0.80;;;19.30;99.90;;;;;;5033105;28;20439;-81
2021/08/17 12:07:36;;;;;;;0.60;0.50;;;19.20;99.90;;;;;;5032996;28;20453;-80
2021/08/17 12:10:11;;;;;;;0.50;0.43;;;19.40;99.90;;;;;;5032980;28;20445;-80
2021/08/17 12:12:58;;;;;;;0.60;0.40;;;19.50;99.90;;;;;;5036882;28;20473;-80
2021/08/17 12:15:30;;;;;;;0.67;0.53;;;19.60;99.90;;;;;;5036874;28;20442;-80
2021/08/17 12:18:10;;;;;;;1.10;0.60;;;19.60;99.90;;;;;;5036535;28;20439;-80
2021/08/17 12:20:39;;;;;;;1.27;0.60;;;19.60;99.90;;;;;;5036784;28;20415;-80
2021/08/17 12:23:16;;;;;;;1.97;0.97;;;19.60;99.90;;;;;;5036496;28;20497;-80
2021/08/17 12:25:43;;;;;;;2.00;0.80;;;19.60;99.90;;;;;;5036273;28;20977;-81
2021/08/17 12:28:14;;;;;;;0.50;0.50;;;19.60;99.90;;;;;;5036599;28;20442;-80
2021/08/17 12:30:40;;;;;;;1.17;0.90;;;19.60;99.90;;;;;;5036637;28;20518;-80
2021/08/17 12:33:09;;;;;;;0.90;0.47;;;19.60;99.90;;;;;;5036133;28;20982;-80
2021/08/17 12:35:36;;;;;;;0.77;0.60;;;19.60;99.90;;;;;;5036852;28;20806;-80
2021/08/17 12:38:15;;;;;;;2.10;0.70;;;19.40;99.90;;;;;;5036094;28;20454;-80
2021/08/17 12:40:48;;;;;;;0.50;0.40;;;19.30;99.90;;;;;;5036182;28;20992;-80
2021/08/17 12:43:22;;;;;;;1.17;0.43;;;19.20;99.90;;;;;;5036162;28;20500;-80
2021/08/17 12:45:50;;;;;;;2.07;0.70;;;19.20;99.90;;;;;;5036256;28;20454;-80
2021/08/17 12:48:19;;;;;;;2.17;0.77;;;19.10;99.90;;;;;;5036198;28;20446;-80
2021/08/17 12:50:48;;;;;;;1.77;1.13;;;19.10;99.90;;;;;;5036144;28;20446;-80
2021/08/17 12:53:19;;;;;;;1.43;0.77;;;19.20;99.90;;;;;;5035743;28;21009;-80